Time;durP1;ratioP1;P1;durP2;ratioP2;P2;SDS_P1;SDS_P2;PMS_P1;PMS_P2;Temp;Humidity;BMP_temperature;BMP_pressure;BME280_temperature;BME280_humidity;BME280_pressure;Samples;Min_cycle;Max_cycle;Signal;HPM_P1;HPM_P2
2023/09/04 00:00:00;;;;;;;3.00;2.10;;;;;;;29.94;41.04;100817.23;102775;1291;61605;-83
2023/09/04 00:02:26;;;;;;;4.40;2.10;;;;;;;29.94;41.00;100809.10;103045;1291;61398;-82
2023/09/04 00:04:52;;;;;;;3.30;2.20;;;;;;;29.95;40.79;100800.80;102787;1291;61405;-83
2023/09/04 00:07:17;;;;;;;3.10;2.10;;;;;;;29.94;40.93;100801.65;102846;1293;61424;-83
2023/09/04 00:09:43;;;;;;;4.00;2.10;;;;;;;29.94;40.99;100796.41;102740;1294;62337;-83
2023/09/04 00:12:08;;;;;;;2.50;1.70;;;;;;;29.94;40.90;100796.27;102778;1296;61402;-83
2023/09/04 00:14:34;;;;;;;3.40;2.00;;;;;;;29.93;41.11;100800.63;102850;1291;61421;-83
2023/09/04 00:17:00;;;;;;;4.20;2.20;;;;;;;29.92;40.88;100810.16;102818;1291;61309;-83
2023/09/04 00:19:26;;;;;;;2.80;1.80;;;;;;;29.93;41.11;100820.98;102825;1290;62067;-83
2023/09/04 00:21:52;;;;;;;3.10;2.00;;;;;;;29.93;41.06;100821.92;102879;1291;61326;-84
2023/09/04 00:24:20;;;;;;;3.80;2.20;;;;;;;29.93;40.79;100828.25;103129;1291;63850;-82
2023/09/04 00:26:46;;;;;;;2.80;1.90;;;;;;;29.92;40.94;100830.84;102858;1291;65787;-83
2023/09/04 00:29:11;;;;;;;3.80;2.20;;;;;;;29.92;41.08;100833.77;102841;1291;62366;-83
2023/09/04 00:31:37;;;;;;;3.70;2.00;;;;;;;29.92;41.05;100839.25;103467;1289;61402;-83
2023/09/04 00:34:03;;;;;;;2.90;1.90;;;;;;;29.92;41.02;100846.52;102875;1291;61331;-83
2023/09/04 00:36:28;;;;;;;3.00;2.00;;;;;;;29.92;40.99;100853.77;102844;1296;61805;-83
2023/09/04 00:38:54;;;;;;;4.00;1.90;;;;;;;29.92;40.93;100854.99;102811;1291;61361;-83
2023/09/04 00:41:19;;;;;;;3.20;1.90;;;;;;;29.92;40.88;100863.73;102811;1293;61391;-83
2023/09/04 00:43:45;;;;;;;3.00;1.90;;;;;;;29.92;40.96;100874.61;102822;1291;61760;-83
2023/09/04 00:46:10;;;;;;;2.80;1.60;;;;;;;29.92;40.98;100882.95;102859;1290;61533;-83
2023/09/04 00:48:36;;;;;;;3.80;1.80;;;;;;;29.92;40.91;100896.77;102845;1293;61367;-83
2023/09/04 00:51:01;;;;;;;2.70;1.70;;;;;;;29.92;40.98;100907.30;102899;1291;61384;-84
2023/09/04 00:53:27;;;;;;;4.50;2.10;;;;;;;29.92;40.95;100916.20;103011;1293;61477;-83
2023/09/04 00:55:52;;;;;;;4.00;2.00;;;;;;;29.92;41.02;100917.95;102813;1291;61431;-82
2023/09/04 00:58:18;;;;;;;3.20;1.70;;;;;;;29.91;40.90;100915.13;102815;1291;64668;-82
2023/09/04 01:00:45;;;;;;;3.20;2.00;;;;;;;29.91;41.11;100912.79;102692;1289;61993;-83
2023/09/04 01:03:11;;;;;;;3.40;2.10;;;;;;;29.91;41.13;100915.03;102837;1291;61450;-83
2023/09/04 01:05:37;;;;;;;3.70;1.80;;;;;;;29.90;41.04;100913.46;102783;1291;61422;-83
2023/09/04 01:08:03;;;;;;;4.40;1.80;;;;;;;29.90;41.10;100915.48;102839;1291;61394;-83
2023/09/04 01:10:34;;;;;;;2.80;1.80;;;;;;;29.90;41.00;100914.58;103077;1291;63841;-81
2023/09/04 01:13:14;;;;;;;2.80;1.70;;;;;;;29.90;41.08;100915.84;102843;1291;65678;-81
2023/09/04 01:15:39;;;;;;;2.90;1.90;;;;;;;29.89;41.05;100917.73;102768;1291;61392;-82
2023/09/04 01:18:05;;;;;;;2.60;1.70;;;;;;;29.89;41.16;100918.96;102780;1289;61464;-84
2023/09/04 01:20:32;;;;;;;3.70;1.90;;;;;;;29.90;41.12;100919.90;102831;1294;61423;-83
2023/09/04 01:22:57;;;;;;;2.70;1.90;;;;;;;29.89;41.03;100917.40;102755;1291;61988;-83
2023/09/04 01:25:46;;;;;;;2.60;1.80;;;;;;;29.89;41.13;100914.10;102833;1291;62249;-83
2023/09/04 01:28:53;;;;;;;3.40;1.80;;;;;;;29.89;41.03;100914.55;102699;1289;61428;-82
2023/09/04 01:31:23;;;;;;;3.10;1.90;;;;;;;29.88;40.97;100913.73;102645;1294;64725;-82
2023/09/04 01:34:21;;;;;;;3.70;1.80;;;;;;;29.88;41.00;100911.35;102859;1293;65549;-82
2023/09/04 01:36:46;;;;;;;2.40;1.70;;;;;;;29.88;41.08;100905.71;102801;1293;61370;-82
2023/09/04 01:39:12;;;;;;;3.30;1.90;;;;;;;29.88;41.03;100901.59;102866;1291;61369;-82
2023/09/04 01:41:41;;;;;;;3.30;1.90;;;;;;;29.88;41.10;100899.91;102772;1296;61410;-82
2023/09/04 01:44:07;;;;;;;;;;;;;;;29.88;41.06;100898.63;102758;1296;66601;-82
2023/09/04 01:46:33;;;;;;;2.50;1.70;;;;;;;29.86;41.00;100894.70;102895;1295;61855;-82
2023/09/04 01:48:59;;;;;;;3.30;1.90;;;;;;;29.86;41.22;100891.98;102929;1294;61310;-82
2023/09/04 01:51:24;;;;;;;2.70;1.80;;;;;;;29.87;41.07;100891.37;102805;1291;62937;-83
2023/09/04 01:53:50;;;;;;;2.70;1.90;;;;;;;29.87;41.15;100890.63;102776;1293;61428;-82
2023/09/04 01:56:15;;;;;;;2.70;1.80;;;;;;;29.87;41.20;100889.57;102894;1291;61429;-82
2023/09/04 01:58:41;;;;;;;2.80;1.90;;;;;;;29.86;40.99;100886.71;102843;1291;61396;-82
2023/09/04 02:01:06;;;;;;;2.70;1.80;;;;;;;29.87;41.08;100882.66;103110;1294;61393;-82
2023/09/04 02:03:33;;;;;;;3.50;1.90;;;;;;;29.86;41.24;100880.52;102786;1306;61403;-82
2023/09/04 02:05:58;;;;;;;3.00;1.80;;;;;;;29.86;41.18;100875.31;102788;1296;62404;-82
2023/09/04 02:08:24;;;;;;;3.80;1.80;;;;;;;29.86;41.10;100868.92;102784;1291;61503;-82
2023/09/04 02:10:51;;;;;;;2.30;1.60;;;;;;;29.87;41.14;100867.25;102975;1290;61424;-82
2023/09/04 02:13:16;;;;;;;2.70;1.80;;;;;;;29.86;41.13;100872.36;102823;1294;61424;-82
2023/09/04 02:15:42;;;;;;;2.60;1.70;;;;;;;29.86;41.24;100877.11;102807;1297;62258;-82
2023/09/04 02:18:07;;;;;;;2.60;1.70;;;;;;;29.85;41.15;100875.88;102788;1291;61926;-82
2023/09/04 02:20:33;;;;;;;3.50;1.90;;;;;;;29.85;41.18;100878.23;102856;1296;62308;-82
2023/09/04 02:22:59;;;;;;;3.00;1.90;;;;;;;29.85;41.16;100880.26;102886;1293;61324;-82
2023/09/04 02:25:25;;;;;;;3.10;1.70;;;;;;;29.85;41.25;100880.27;102765;1291;61412;-82
2023/09/04 02:27:51;;;;;;;2.60;1.70;;;;;;;29.85;41.26;100885.13;103368;1296;61412;-82
2023/09/04 02:30:16;;;;;;;3.70;1.90;;;;;;;29.85;41.12;100886.96;102753;1297;61557;-83
2023/09/04 02:32:43;;;;;;;2.90;1.80;;;;;;;29.86;41.06;100890.37;102803;1297;61989;-83
2023/09/04 02:35:09;;;;;;;2.60;1.70;;;;;;;29.85;41.21;100891.34;102838;1293;61342;-83
2023/09/04 02:37:35;;;;;;;2.50;1.80;;;;;;;29.85;41.22;100891.72;102820;1296;62790;-82
2023/09/04 02:40:01;;;;;;;3.60;1.90;;;;;;;29.85;41.15;100893.56;102766;1293;61431;-82
2023/09/04 02:42:30;;;;;;;2.60;1.70;;;;;;;29.84;41.32;100891.22;102772;1296;61714;-82
2023/09/04 02:44:56;;;;;;;;;;;;;;;29.84;41.17;100889.75;102916;1294;61296;-82
2023/09/04 02:47:22;;;;;;;3.10;1.90;;;;;;;29.82;41.16;100888.00;102812;1293;61464;-82
2023/09/04 02:49:48;;;;;;;3.00;1.80;;;;;;;29.82;41.28;100880.55;102794;1291;61316;-82
2023/09/04 02:52:14;;;;;;;3.50;1.70;;;;;;;29.83;41.13;100878.34;102873;1293;62530;-82
2023/09/04 02:54:41;;;;;;;2.80;1.70;;;;;;;29.82;41.22;100876.20;102943;1293;61308;-82
2023/09/04 02:57:07;;;;;;;4.00;2.10;;;;;;;29.82;41.28;100873.67;102777;1296;61456;-82
2023/09/04 02:59:36;;;;;;;3.00;1.70;;;;;;;29.83;41.10;100870.55;102709;1297;62280;-82
2023/09/04 03:02:02;;;;;;;2.60;1.70;;;;;;;29.82;41.28;100863.71;102668;1297;61331;-82
2023/09/04 03:04:28;;;;;;;2.60;1.60;;;;;;;29.82;41.26;100859.73;102904;1297;61485;-82
2023/09/04 03:06:54;;;;;;;2.60;1.70;;;;;;;29.82;41.19;100857.56;102647;1297;61325;-82
2023/09/04 03:09:19;;;;;;;2.40;1.70;;;;;;;29.82;41.13;100860.05;102671;1298;61533;-82
2023/09/04 03:11:45;;;;;;;2.60;1.70;;;;;;;29.82;41.29;100857.90;102724;1292;61517;-82
2023/09/04 03:14:11;;;;;;;3.80;1.70;;;;;;;29.82;41.21;100861.34;102739;1296;61469;-82
2023/09/04 03:16:37;;;;;;;2.90;1.70;;;;;;;29.82;41.11;100860.96;102685;1299;61589;-82
2023/09/04 03:19:03;;;;;;;2.80;1.70;;;;;;;29.82;41.13;100863.20;102800;1292;63805;-82
2023/09/04 03:21:31;;;;;;;2.40;1.70;;;;;;;29.82;41.13;100862.33;102596;1299;61534;-82
2023/09/04 03:23:56;;;;;;;2.70;1.70;;;;;;;29.81;41.13;100860.34;102757;1297;61402;-82
2023/09/04 03:26:22;;;;;;;4.10;1.90;;;;;;;29.81;41.32;100863.79;102749;1297;61452;-82
2023/09/04 03:28:47;;;;;;;3.60;1.90;;;;;;;29.81;41.13;100861.27;102799;1293;61282;-82
2023/09/04 03:31:16;;;;;;;2.50;1.80;;;;;;;29.81;41.32;100859.25;102798;1297;61408;-82
2023/09/04 03:33:42;;;;;;;2.60;1.60;;;;;;;29.81;41.26;100860.77;102858;1292;61316;-82
2023/09/04 03:36:10;;;;;;;2.50;1.60;;;;;;;29.81;41.15;100864.19;102736;1293;61473;-82
2023/09/04 03:38:40;;;;;;;3.30;1.80;;;;;;;29.80;41.19;100859.90;102749;1290;64117;-81
2023/09/04 03:41:05;;;;;;;2.50;1.70;;;;;;;29.80;41.27;100861.57;102906;1289;65696;-82
2023/09/04 03:43:33;;;;;;;3.00;1.70;;;;;;;29.80;41.11;100857.94;102823;1291;61330;-82
2023/09/04 03:45:59;;;;;;;2.90;1.90;;;;;;;29.80;41.19;100860.82;102885;1292;61773;-82
2023/09/04 03:48:24;;;;;;;2.70;1.70;;;;;;;29.80;41.15;100860.14;102739;1292;62040;-82
2023/09/04 03:50:50;;;;;;;2.70;1.60;;;;;;;29.80;41.09;100860.35;102810;1303;61443;-82
2023/09/04 03:53:15;;;;;;;2.90;1.70;;;;;;;29.79;40.98;100862.75;103037;1290;61860;-81
2023/09/04 03:55:41;;;;;;;2.70;1.80;;;;;;;29.77;40.96;100862.04;102843;1295;61328;-82
2023/09/04 03:58:06;;;;;;;2.60;1.60;;;;;;;29.77;40.86;100861.02;102772;1293;61347;-82
2023/09/04 04:00:32;;;;;;;2.40;1.70;;;;;;;29.75;40.64;100861.15;102884;1289;61424;-82
2023/09/04 04:02:57;;;;;;;3.20;1.70;;;;;;;29.75;40.64;100865.54;103022;1291;61549;-82
2023/09/04 04:05:23;;;;;;;3.70;1.80;;;;;;;29.75;40.51;100864.85;103350;1291;61715;-82
2023/09/04 04:07:49;;;;;;;5.00;1.70;;;;;;;29.74;40.43;100863.29;103226;1296;61319;-82
2023/09/04 04:10:15;;;;;;;3.00;1.70;;;;;;;29.75;40.32;100865.02;103312;1293;63025;-82
2023/09/04 04:12:41;;;;;;;3.50;1.80;;;;;;;29.74;40.29;100864.21;102789;1295;66025;-82
2023/09/04 04:15:07;;;;;;;2.80;1.70;;;;;;;29.73;39.98;100862.10;102781;1307;61473;-83
2023/09/04 04:17:33;;;;;;;3.60;1.80;;;;;;;29.73;40.00;100868.35;102864;1294;61387;-83
2023/09/04 04:19:59;;;;;;;3.90;1.60;;;;;;;29.73;39.89;100870.52;102791;1294;61397;-82
2023/09/04 04:22:24;;;;;;;3.00;1.80;;;;;;;29.73;39.86;100867.98;102760;1291;61397;-83
2023/09/04 04:24:50;;;;;;;3.50;2.10;;;;;;;29.72;39.63;100864.94;103208;1291;61378;-82
2023/09/04 04:27:16;;;;;;;3.40;1.90;;;;;;;29.71;39.81;100861.57;103143;1296;61414;-82
2023/09/04 04:29:46;;;;;;;2.80;1.80;;;;;;;29.71;39.63;100855.83;103122;1295;61279;-82
2023/09/04 04:32:13;;;;;;;2.70;1.80;;;;;;;29.70;39.46;100854.98;103002;1294;61737;-82
2023/09/04 04:34:40;;;;;;;4.50;1.80;;;;;;;29.71;39.37;100853.69;102914;1296;66090;-82
2023/09/04 04:37:06;;;;;;;5.10;2.20;;;;;;;29.70;39.37;100853.73;103283;1291;66221;-82
2023/09/04 04:39:32;;;;;;;4.60;2.10;;;;;;;29.70;39.15;100854.50;102804;1294;61399;-82
2023/09/04 04:41:57;;;;;;;4.50;2.10;;;;;;;29.70;39.19;100857.80;102779;1293;61370;-82
2023/09/04 04:44:23;;;;;;;3.90;2.10;;;;;;;29.69;39.14;100862.40;102757;1297;61300;-82
2023/09/04 04:46:50;;;;;;;2.90;1.90;;;;;;;29.69;38.85;100862.23;102821;1292;62563;-82
2023/09/04 04:49:22;;;;;;;4.20;2.00;;;;;;;29.67;38.80;100860.92;102761;1296;61528;-82
2023/09/04 04:51:51;;;;;;;2.70;1.80;;;;;;;29.66;38.67;100858.50;102771;1296;61405;-82
2023/09/04 04:54:16;;;;;;;;;;;;;;;29.66;38.49;100859.11;102775;1291;63818;-82
2023/09/04 04:56:42;;;;;;;3.40;1.90;;;;;;;29.63;38.64;100859.99;102843;1293;61887;-83
2023/09/04 04:59:08;;;;;;;3.50;2.00;;;;;;;29.62;38.65;100860.95;102827;1290;61489;-82
2023/09/04 05:01:34;;;;;;;4.30;2.10;;;;;;;29.62;38.65;100862.46;102760;1296;61457;-82
2023/09/04 05:04:01;;;;;;;3.60;2.10;;;;;;;29.62;38.51;100866.61;102719;1290;61520;-82
2023/09/04 05:06:28;;;;;;;4.00;2.00;;;;;;;29.61;38.46;100866.00;102914;1293;61408;-82
2023/09/04 05:08:53;;;;;;;3.40;2.00;;;;;;;29.60;38.36;100868.92;102857;1291;61945;-82
2023/09/04 05:11:19;;;;;;;3.70;2.00;;;;;;;29.60;38.18;100867.33;102911;1289;61403;-82
2023/09/04 05:13:44;;;;;;;3.50;2.10;;;;;;;29.60;38.04;100864.25;103218;1293;61311;-82
2023/09/04 05:16:10;;;;;;;3.10;2.00;;;;;;;29.59;37.98;100866.73;103036;1289;61498;-82
2023/09/04 05:18:35;;;;;;;3.80;2.10;;;;;;;29.55;38.04;100870.89;102988;1290;61414;-82
2023/09/04 05:21:04;;;;;;;3.30;2.20;;;;;;;29.53;37.96;100872.02;102922;1291;61394;-82
2023/09/04 05:23:30;;;;;;;5.20;2.60;;;;;;;29.50;37.72;100874.39;102832;1291;61364;-83
2023/09/04 05:25:56;;;;;;;3.70;2.60;;;;;;;29.48;37.67;100873.58;102714;1291;61880;-82
2023/09/04 05:28:21;;;;;;;5.10;2.70;;;;;;;29.44;37.34;100868.66;102721;1297;61420;-83
2023/09/04 05:30:47;;;;;;;4.10;2.50;;;;;;;29.43;37.30;100868.99;102871;1289;61698;-83
2023/09/04 05:33:12;;;;;;;3.70;2.50;;;;;;;29.41;37.39;100866.41;102859;1294;61445;-83
2023/09/04 05:35:38;;;;;;;5.50;2.70;;;;;;;29.40;37.39;100865.48;102923;1297;61277;-83
2023/09/04 05:38:04;;;;;;;4.90;2.50;;;;;;;29.38;37.29;100865.52;102965;1291;62321;-82
2023/09/04 05:40:29;;;;;;;3.90;2.20;;;;;;;29.37;37.18;100869.66;102792;1294;61753;-83
2023/09/04 05:42:56;;;;;;;4.40;2.40;;;;;;;29.35;37.24;100871.25;102973;1291;61320;-83
2023/09/04 05:45:22;;;;;;;4.10;2.20;;;;;;;29.33;37.19;100875.48;102809;1291;61419;-83
2023/09/04 05:47:47;;;;;;;4.70;2.40;;;;;;;29.31;37.17;100877.50;103092;1291;61431;-82
2023/09/04 05:50:14;;;;;;;3.50;2.20;;;;;;;29.29;37.03;100880.22;102969;1293;61420;-83
2023/09/04 05:52:39;;;;;;;3.50;2.40;;;;;;;29.28;36.95;100885.41;102970;1291;66897;-82
2023/09/04 05:55:06;;;;;;;5.20;2.50;;;;;;;29.27;36.92;100888.99;103077;1290;61448;-84
2023/09/04 05:57:32;;;;;;;4.30;2.30;;;;;;;29.24;36.94;100887.58;103145;1291;63345;-83
2023/09/04 05:59:58;;;;;;;5.60;2.30;;;;;;;29.23;36.96;100883.89;102878;1291;61338;-83
2023/09/04 06:02:25;;;;;;;3.50;2.30;;;;;;;29.23;36.75;100885.72;102686;1296;463960;-83
2023/09/04 06:04:51;;;;;;;5.40;2.40;;;;;;;29.23;36.87;100887.73;102979;1293;61289;-80
2023/09/04 06:07:16;;;;;;;4.30;2.60;;;;;;;29.23;36.73;100890.79;102868;1291;61505;-81
2023/09/04 06:09:44;;;;;;;4.40;2.30;;;;;;;29.23;36.70;100892.08;102754;1291;61496;-81
2023/09/04 06:12:11;;;;;;;6.30;2.50;;;;;;;29.23;36.64;100892.46;102992;1291;61472;-83
2023/09/04 06:14:40;;;;;;;4.50;2.30;;;;;;;29.21;36.64;100893.87;102962;1294;61332;-83
2023/09/04 06:17:06;;;;;;;4.30;2.30;;;;;;;29.22;36.69;100901.05;102843;1293;61386;-83
2023/09/04 06:19:31;;;;;;;4.50;2.50;;;;;;;29.20;36.61;100900.18;102887;1290;61411;-83
2023/09/04 06:21:57;;;;;;;4.70;2.30;;;;;;;29.16;36.72;100900.54;102930;1291;61409;-82
2023/09/04 06:24:24;;;;;;;5.00;2.60;;;;;;;29.13;36.62;100898.68;102895;1293;62095;-83
2023/09/04 06:26:51;;;;;;;3.70;2.40;;;;;;;29.11;36.46;100898.38;102914;1290;61663;-82
2023/09/04 06:29:17;;;;;;;3.80;2.30;;;;;;;29.09;36.42;100899.29;103006;1293;61331;-82
2023/09/04 06:31:45;;;;;;;3.60;2.60;;;;;;;29.08;36.56;100903.01;103053;1291;61506;-83
2023/09/04 06:34:11;;;;;;;3.90;2.30;;;;;;;29.05;36.44;100898.87;103053;1291;61169;-82
2023/09/04 06:36:36;;;;;;;7.20;2.60;;;;;;;28.98;36.61;100901.41;102876;1291;61406;-82
2023/09/04 06:39:06;;;;;;;5.40;2.40;;;;;;;28.92;36.36;100907.35;103059;1290;62480;-82
2023/09/04 06:41:32;;;;;;;5.00;2.50;;;;;;;28.91;36.36;100910.36;103457;1290;66644;-81
2023/09/04 06:44:02;;;;;;;5.10;2.40;;;;;;;28.88;36.57;100908.88;102954;1295;61796;-80
2023/09/04 06:46:28;;;;;;;6.10;2.40;;;;;;;28.85;36.39;100904.71;103156;1289;61517;-80
2023/09/04 06:48:54;;;;;;;4.50;2.40;;;;;;;28.84;36.42;100903.66;103215;1291;62176;-82
2023/09/04 06:51:19;;;;;;;5.00;2.60;;;;;;;28.86;36.39;100904.63;103185;1293;61339;-82
2023/09/04 06:53:45;;;;;;;6.60;2.50;;;;;;;28.87;36.47;100907.95;102967;1291;62686;-82
2023/09/04 06:56:10;;;;;;;4.10;2.70;;;;;;;28.89;36.41;100910.66;103026;1291;61519;-81
2023/09/04 06:58:36;;;;;;;4.30;2.40;;;;;;;28.90;36.47;100912.46;103122;1291;61957;-82
2023/09/04 07:01:03;;;;;;;4.80;2.60;;;;;;;28.89;36.26;100913.30;103189;1293;61279;-82
2023/09/04 07:03:29;;;;;;;5.30;2.50;;;;;;;28.88;36.33;100918.17;102958;1291;62275;-82
2023/09/04 07:05:54;;;;;;;3.50;2.40;;;;;;;28.90;36.41;100919.73;103081;1290;61823;-82
2023/09/04 07:08:20;;;;;;;5.20;2.30;;;;;;;28.93;36.26;100925.02;103297;1291;61402;-82
2023/09/04 07:10:47;;;;;;;4.10;2.60;;;;;;;28.96;36.26;100927.69;103048;1296;61371;-82
2023/09/04 07:13:14;;;;;;;3.90;2.30;;;;;;;28.98;36.32;100926.02;103221;1289;61303;-82
2023/09/04 07:15:40;;;;;;;5.50;2.50;;;;;;;29.00;36.33;100928.33;103324;1289;61865;-81
2023/09/04 07:18:06;;;;;;;4.90;2.50;;;;;;;29.00;36.16;100932.85;103189;1291;61462;-81
2023/09/04 07:20:32;;;;;;;5.70;2.40;;;;;;;29.02;36.32;100938.23;103166;1291;63164;-82
2023/09/04 07:22:57;;;;;;;6.00;2.60;;;;;;;29.02;36.25;100941.11;103409;1290;61296;-81
2023/09/04 07:25:23;;;;;;;4.10;2.10;;;;;;;29.03;36.33;100941.80;103377;1291;61387;-81
2023/09/04 07:27:50;;;;;;;5.10;2.30;;;;;;;29.05;36.15;100948.49;103371;1289;61405;-81
2023/09/04 07:30:15;;;;;;;4.40;2.50;;;;;;;29.05;36.25;100944.25;103589;1290;61281;-82
2023/09/04 07:32:41;;;;;;;4.80;2.50;;;;;;;29.07;36.19;100945.88;103822;1291;61404;-82
2023/09/04 07:35:08;;;;;;;6.20;2.60;;;;;;;29.06;36.18;100945.60;103194;1290;61553;-81
2023/09/04 07:37:34;;;;;;;5.10;2.60;;;;;;;29.05;36.00;100943.04;103518;1290;62292;-82
2023/09/04 07:40:00;;;;;;;5.00;2.70;;;;;;;29.04;36.14;100945.61;103424;1292;61254;-82
2023/09/04 07:42:25;;;;;;;7.00;2.50;;;;;;;29.05;36.26;100950.41;103450;1290;61431;-82
2023/09/04 07:44:51;;;;;;;5.20;2.80;;;;;;;29.03;36.29;100949.51;103218;1292;61306;-82
2023/09/04 07:47:16;;;;;;;4.60;2.30;;;;;;;29.03;36.08;100943.04;103164;1294;61362;-81
2023/09/04 07:49:42;;;;;;;6.30;2.40;;;;;;;29.02;36.11;100944.58;103210;1293;61311;-83
2023/09/04 07:52:07;;;;;;;6.40;2.50;;;;;;;28.99;36.15;100943.23;103503;1293;61501;-81
2023/09/04 07:54:33;;;;;;;3.60;2.40;;;;;;;28.97;36.22;100945.08;103175;1293;61507;-82
2023/09/04 07:57:01;;;;;;;6.40;2.50;;;;;;;28.97;35.96;100942.58;103269;1291;61307;-82
2023/09/04 07:59:27;;;;;;;5.10;2.50;;;;;;;28.99;35.87;100949.10;103683;1293;61586;-82
2023/09/04 08:01:53;;;;;;;5.10;2.30;;;;;;;29.00;36.16;100946.06;103390;1291;61415;-82
2023/09/04 08:04:19;;;;;;;4.60;2.50;;;;;;;29.00;36.09;100949.69;103425;1290;61783;-82
2023/09/04 08:06:44;;;;;;;4.80;2.30;;;;;;;29.01;36.18;100951.02;103391;1293;61432;-81
2023/09/04 08:09:10;;;;;;;4.90;2.70;;;;;;;29.02;35.99;100954.02;103117;1292;65711;-82
2023/09/04 08:11:36;;;;;;;4.60;2.60;;;;;;;29.03;35.83;100951.01;103262;1294;62302;-81
2023/09/04 08:14:01;;;;;;;5.00;2.20;;;;;;;29.00;35.83;100946.33;103204;1292;61325;-81
2023/09/04 08:16:27;;;;;;;5.30;2.10;;;;;;;28.99;36.07;100950.95;103163;1293;61396;-83
2023/09/04 08:18:53;;;;;;;7.10;2.30;;;;;;;29.00;36.07;100949.59;103912;1292;59588;-82
2023/09/04 08:21:18;;;;;;;4.30;2.40;;;;;;;29.00;36.03;100957.33;103631;1292;61423;-82
2023/09/04 08:23:44;;;;;;;5.10;2.30;;;;;;;28.98;36.02;100957.70;103330;1293;61370;-81
2023/09/04 08:26:13;;;;;;;5.80;2.10;;;;;;;28.94;35.80;100956.70;103368;1293;61300;-82
2023/09/04 08:28:41;;;;;;;;;;;;;;;28.82;35.58;100956.77;103113;1293;64588;-82
2023/09/04 08:31:07;;;;;;;4.20;2.60;;;;;;;28.73;35.84;100952.05;103541;1293;65977;-82
2023/09/04 08:33:34;;;;;;;4.20;2.50;;;;;;;28.72;35.95;100950.60;103672;1292;61344;-82
2023/09/04 08:36:00;;;;;;;4.90;2.30;;;;;;;28.71;36.01;100953.38;103391;1291;62262;-82
2023/09/04 08:38:26;;;;;;;3.40;2.20;;;;;;;28.73;36.01;100949.38;103300;1290;61222;-82
2023/09/04 08:40:52;;;;;;;4.60;2.30;;;;;;;28.76;36.11;100948.52;103600;1290;61370;-82
2023/09/04 08:43:18;;;;;;;4.10;2.30;;;;;;;28.80;35.90;100943.56;103214;1291;61405;-82
2023/09/04 08:45:44;;;;;;;4.60;2.10;;;;;;;28.85;35.93;100943.95;103099;1291;61477;-81
2023/09/04 08:48:11;;;;;;;4.60;2.30;;;;;;;28.88;35.93;100946.72;103085;1290;61379;-83
2023/09/04 08:50:37;;;;;;;4.20;2.10;;;;;;;28.83;35.87;100945.80;103022;1293;61401;-81
2023/09/04 08:53:04;;;;;;;8.60;2.50;;;;;;;28.69;35.79;100941.13;103046;1296;61985;-82
2023/09/04 08:55:31;;;;;;;3.70;2.30;;;;;;;28.60;35.93;100942.32;102989;1291;61498;-82
2023/09/04 08:57:56;;;;;;;5.60;2.60;;;;;;;28.59;35.86;100939.87;103079;1296;61339;-82
2023/09/04 09:00:22;;;;;;;6.00;3.10;;;;;;;28.57;35.97;100940.08;102972;1291;61736;-81
2023/09/04 09:02:48;;;;;;;4.30;2.90;;;;;;;28.60;35.94;100943.91;103069;1291;61393;-81
2023/09/04 09:05:16;;;;;;;8.10;2.80;;;;;;;28.64;35.80;100944.70;103114;1291;61513;-81
2023/09/04 09:07:42;;;;;;;4.10;2.30;;;;;;;28.65;35.95;100944.59;103193;1291;62372;-81
2023/09/04 09:10:09;;;;;;;7.70;2.20;;;;;;;28.69;35.77;100941.48;103172;1290;61392;-81
2023/09/04 09:12:35;;;;;;;4.50;2.20;;;;;;;28.74;35.92;100940.36;103481;1290;63053;-82
2023/09/04 09:15:00;;;;;;;4.60;2.00;;;;;;;28.80;35.80;100944.62;103463;1292;61474;-82
2023/09/04 09:17:26;;;;;;;5.80;2.30;;;;;;;28.85;35.91;100952.52;103446;1294;61391;-81
2023/09/04 09:19:51;;;;;;;4.50;2.20;;;;;;;28.88;35.88;100949.60;103346;1291;61395;-82
2023/09/04 09:22:18;;;;;;;3.50;2.20;;;;;;;28.91;35.53;100949.31;103330;1289;61287;-82
2023/09/04 09:24:52;;;;;;;6.10;2.50;;;;;;;28.94;35.51;100945.64;103239;1290;61307;-82
2023/09/04 09:27:19;;;;;;;3.40;2.00;;;;;;;28.97;35.61;100943.70;103425;1290;61309;-81
2023/09/04 09:29:47;;;;;;;4.70;2.10;;;;;;;28.99;35.64;100945.34;103161;1291;63668;-81
2023/09/04 09:32:12;;;;;;;2.60;1.90;;;;;;;29.01;35.43;100941.30;103206;1293;65799;-81
2023/09/04 09:34:39;;;;;;;3.00;2.00;;;;;;;29.04;35.42;100947.71;102939;1295;61378;-81
2023/09/04 09:37:08;;;;;;;3.30;2.00;;;;;;;29.06;35.36;100951.27;102931;1297;61433;-82
2023/09/04 09:39:34;;;;;;;3.20;1.80;;;;;;;29.08;35.48;100950.70;102893;1291;64854;-81
2023/09/04 09:42:00;;;;;;;4.20;2.00;;;;;;;29.09;35.33;100952.75;102971;1291;61405;-82
2023/09/04 09:44:31;;;;;;;3.30;2.10;;;;;;;29.10;35.32;100948.11;103228;1293;62516;-82
2023/09/04 09:46:56;;;;;;;4.20;2.10;;;;;;;29.11;35.30;100944.54;103572;1290;61758;-82
2023/09/04 09:49:22;;;;;;;3.40;2.10;;;;;;;29.14;35.26;100938.48;103062;1291;61369;-82
2023/09/04 09:51:53;;;;;;;6.00;2.30;;;;;;;29.16;35.28;100946.00;103242;1293;61977;-82
2023/09/04 09:54:39;;;;;;;3.90;2.20;;;;;;;29.18;35.12;100942.23;103212;1292;61388;-82
2023/09/04 09:57:09;;;;;;;4.80;1.90;;;;;;;29.18;35.15;100940.02;103216;1289;61194;-82
2023/09/04 09:59:44;;;;;;;5.00;2.20;;;;;;;29.19;35.20;100933.20;102879;1296;63869;-82
2023/09/04 10:02:10;;;;;;;2.90;2.00;;;;;;;29.21;35.11;100932.16;102850;1291;65638;-82
2023/09/04 10:04:36;;;;;;;3.40;2.10;;;;;;;29.22;35.15;100932.71;102920;1293;62594;-82
2023/09/04 10:07:04;;;;;;;5.30;2.00;;;;;;;29.23;35.13;100929.36;102905;1290;61501;-82
2023/09/04 10:09:46;;;;;;;4.40;2.10;;;;;;;29.24;34.92;100923.46;103038;1291;64856;-82
2023/09/04 10:12:25;;;;;;;5.50;2.00;;;;;;;29.24;34.92;100921.42;103075;1296;65733;-82
2023/09/04 10:14:51;;;;;;;3.70;2.10;;;;;;;29.25;35.03;100915.95;103000;1290;61284;-83
2023/09/04 10:17:22;;;;;;;4.80;2.30;;;;;;;29.26;34.72;100913.89;102991;1291;61846;-83
2023/09/04 10:19:48;;;;;;;3.30;1.80;;;;;;;29.27;34.93;100918.88;102866;1295;63718;-83
2023/09/04 10:22:21;;;;;;;4.90;1.90;;;;;;;29.27;34.94;100925.05;103015;1297;63944;-83
2023/09/04 10:24:49;;;;;;;3.60;2.10;;;;;;;29.24;34.76;100926.35;102868;1294;61486;-82
2023/09/04 10:27:17;;;;;;;4.20;2.00;;;;;;;29.24;34.88;100928.70;103043;1289;61313;-82
2023/09/04 10:29:53;;;;;;;3.10;2.00;;;;;;;29.22;34.80;100928.35;102969;1291;64937;-83
2023/09/04 10:32:18;;;;;;;3.60;2.20;;;;;;;29.21;34.74;100927.41;102973;1291;65800;-83
2023/09/04 10:34:44;;;;;;;4.60;2.40;;;;;;;29.23;34.58;100925.25;103159;1293;61475;-81
2023/09/04 10:37:11;;;;;;;6.80;2.30;;;;;;;29.24;34.84;100930.16;102976;1291;61444;-81
2023/09/04 10:39:38;;;;;;;4.60;2.10;;;;;;;29.25;34.86;100926.98;103219;1293;61676;-81
2023/09/04 10:42:04;;;;;;;6.20;1.80;;;;;;;29.27;34.67;100928.48;102998;1294;61468;-81
2023/09/04 10:44:47;;;;;;;3.40;2.10;;;;;;;29.28;34.74;100935.77;103051;1291;61273;-81
2023/09/04 10:47:13;;;;;;;2.70;1.90;;;;;;;29.30;34.76;100930.92;102969;1292;61357;-81
2023/09/04 10:49:39;;;;;;;3.20;2.30;;;;;;;29.31;34.68;100938.55;103120;1291;61399;-81
2023/09/04 10:52:05;;;;;;;3.80;2.20;;;;;;;29.32;34.59;100933.41;102882;1291;61427;-81
2023/09/04 10:54:31;;;;;;;3.50;2.30;;;;;;;29.32;34.59;100936.23;103264;1290;61401;-82
2023/09/04 10:56:58;;;;;;;6.30;2.40;;;;;;;29.33;34.67;100940.49;102911;1296;61496;-82
2023/09/04 10:59:24;;;;;;;4.10;2.10;;;;;;;29.34;34.61;100936.23;102937;1291;61398;-82
2023/09/04 11:01:49;;;;;;;4.00;2.10;;;;;;;29.35;34.62;100934.73;103031;1293;61322;-81
2023/09/04 11:04:34;;;;;;;4.20;2.30;;;;;;;29.36;34.54;100939.29;102902;1290;61402;-81
2023/09/04 11:07:34;;;;;;;3.90;2.10;;;;;;;29.37;34.52;100937.95;102958;1290;62841;-82
2023/09/04 11:10:02;;;;;;;4.70;1.90;;;;;;;29.37;34.57;100936.30;102769;1299;63850;-82
2023/09/04 11:12:31;;;;;;;3.70;2.30;;;;;;;29.39;34.49;100931.06;102569;1299;65797;-82
2023/09/04 11:14:56;;;;;;;4.80;2.10;;;;;;;29.39;34.66;100934.44;102867;1295;61530;-82